Time;durP1;ratioP1;P1;durP2;ratioP2;P2;SDS_P1;SDS_P2;PMS_P1;PMS_P2;Temp;Humidity;BMP_temperature;BMP_pressure;BME280_temperature;BME280_humidity;BME280_pressure;Samples;Min_cycle;Max_cycle;Signal;HPM_P1;HPM_P2
2021/04/21 00:00:33;;;;;;;;;;;21.20;36.10;;;;;;505261;232;2262;-45
2021/04/21 00:02:34;;;;;;;;;;;21.20;36.00;;;;;;505411;235;1460;-45
2021/04/21 00:04:36;;;;;;;;;;;21.10;36.20;;;;;;505400;235;1053;-45
2021/04/21 00:06:37;;;;;;;;;;;21.00;36.40;;;;;;505663;236;1092;-45
2021/04/21 00:08:38;;;;;;;;;;;20.90;36.40;;;;;;505411;235;1087;-45
2021/04/21 00:10:39;;;;;;;;;;;20.90;36.50;;;;;;505803;236;1094;-45
2021/04/21 00:12:41;;;;;;;;;;;20.90;36.60;;;;;;505337;235;1149;-45
2021/04/21 00:14:42;;;;;;;;;;;20.90;36.70;;;;;;505884;235;2137;-45
2021/04/21 00:16:43;;;;;;;;;;;20.90;36.70;;;;;;505338;235;1247;-45
2021/04/21 00:18:45;;;;;;;;;;;20.90;36.70;;;;;;505364;236;1030;-44
2021/04/21 00:20:46;;;;;;;;;;;20.80;36.70;;;;;;505835;235;1074;-45
2021/04/21 00:22:47;;;;;;;;;;;20.80;36.70;;;;;;505406;235;1055;-45
2021/04/21 00:24:48;;;;;;;;;;;21.00;36.40;;;;;;505757;235;1044;-45
2021/04/21 00:26:50;;;;;;;;;;;21.10;36.10;;;;;;505803;235;1403;-45
2021/04/21 00:28:52;;;;;;;;;;;21.20;36.00;;;;;;505647;235;1054;-45
2021/04/21 00:30:52;;;;;;;;;;;21.30;35.80;;;;;;505465;235;1991;-45
2021/04/21 00:32:54;;;;;;;;;;;21.40;35.80;;;;;;505497;234;1313;-45
2021/04/21 00:34:55;;;;;;;;;;;21.40;35.60;;;;;;505512;235;2198;-44
2021/04/21 00:36:56;;;;;;;;;;;21.40;35.80;;;;;;505799;235;1174;-45
2021/04/21 00:38:58;;;;;;;;;;;21.40;35.70;;;;;;505892;235;1177;-45
2021/04/21 00:40:59;;;;;;;;;;;21.50;35.50;;;;;;505371;235;1114;-45
2021/04/21 00:43:00;;;;;;;;;;;21.60;35.50;;;;;;505332;235;1055;-45
2021/04/21 00:45:01;;;;;;;;;;;21.50;35.60;;;;;;505720;235;1051;-45
2021/04/21 00:47:03;;;;;;;;;;;21.50;35.50;;;;;;505313;235;1297;-45
2021/04/21 00:49:04;;;;;;;;;;;21.60;35.50;;;;;;505592;235;1059;-45
2021/04/21 00:51:05;;;;;;;;;;;21.60;35.40;;;;;;505601;235;1103;-45
2021/04/21 00:53:06;;;;;;;;;;;21.70;35.30;;;;;;505591;235;1065;-45
2021/04/21 00:55:08;;;;;;;;;;;21.60;35.40;;;;;;505606;235;2146;-45
2021/04/21 00:57:09;;;;;;;;;;;21.40;35.70;;;;;;505786;236;1063;-45
2021/04/21 00:59:10;;;;;;;;;;;21.20;35.90;;;;;;505391;234;1161;-44
2021/04/21 01:01:12;;;;;;;;;;;21.10;36.30;;;;;;505323;235;1271;-45
2021/04/21 01:03:13;;;;;;;;;;;21.00;36.50;;;;;;505670;235;995;-45
2021/04/21 01:05:14;;;;;;;;;;;20.90;36.80;;;;;;505598;235;1010;-45
2021/04/21 01:07:15;;;;;;;;;;;20.90;36.90;;;;;;505701;235;1048;-45
2021/04/21 01:09:17;;;;;;;;;;;20.90;36.70;;;;;;505407;235;1010;-45
2021/04/21 01:11:18;;;;;;;;;;;21.00;36.50;;;;;;505535;234;1013;-45
2021/04/21 01:13:19;;;;;;;;;;;21.10;36.40;;;;;;505853;235;1060;-45
2021/04/21 01:15:20;;;;;;;;;;;21.10;36.30;;;;;;505375;235;2185;-45
2021/04/21 01:17:22;;;;;;;;;;;21.20;36.30;;;;;;505317;235;1232;-45
2021/04/21 01:19:23;;;;;;;;;;;21.20;36.10;;;;;;505401;234;1114;-45
2021/04/21 01:21:24;;;;;;;;;;;21.20;36.20;;;;;;505830;234;1429;-45
2021/04/21 01:23:26;;;;;;;;;;;21.30;36.00;;;;;;505383;234;1070;-44
2021/04/21 01:25:27;;;;;;;;;;;21.40;35.80;;;;;;505651;235;1017;-44
2021/04/21 01:27:28;;;;;;;;;;;21.50;35.80;;;;;;505541;235;1079;-45
2021/04/21 01:29:30;;;;;;;;;;;21.40;35.80;;;;;;505366;235;1119;-45
2021/04/21 01:31:31;;;;;;;;;;;21.40;35.80;;;;;;505707;235;1495;-44
2021/04/21 01:33:32;;;;;;;;;;;21.50;35.70;;;;;;505800;235;1131;-45
2021/04/21 01:35:33;;;;;;;;;;;21.50;35.70;;;;;;505553;235;2187;-45
2021/04/21 01:37:35;;;;;;;;;;;21.40;35.80;;;;;;505673;235;1044;-45
2021/04/21 01:39:36;;;;;;;;;;;21.30;36.00;;;;;;505397;235;1037;-45
2021/04/21 01:41:37;;;;;;;;;;;21.30;36.10;;;;;;505234;235;1309;-45
2021/04/21 01:43:39;;;;;;;;;;;21.30;36.00;;;;;;505789;235;1052;-45
2021/04/21 01:45:40;;;;;;;;;;;21.50;35.80;;;;;;505842;236;1104;-44
2021/04/21 01:47:42;;;;;;;;;;;21.50;35.70;;;;;;505296;234;1196;-45
2021/04/21 01:49:43;;;;;;;;;;;21.50;35.70;;;;;;505558;235;956;-45
2021/04/21 01:51:44;;;;;;;;;;;21.50;35.70;;;;;;505460;235;1241;-45
2021/04/21 01:53:46;;;;;;;;;;;21.50;35.80;;;;;;505771;235;1077;-44
2021/04/21 01:55:47;;;;;;;;;;;21.40;35.90;;;;;;505832;235;2143;-45
2021/04/21 01:57:48;;;;;;;;;;;21.30;36.10;;;;;;505859;235;1023;-44
2021/04/21 01:59:50;;;;;;;;;;;21.20;36.30;;;;;;505378;235;1041;-45
2021/04/21 02:01:51;;;;;;;;;;;21.20;36.20;;;;;;505570;235;1260;-45
2021/04/21 02:03:52;;;;;;;;;;;21.20;36.30;;;;;;505791;235;1038;-45
2021/04/21 02:05:53;;;;;;;;;;;21.20;36.40;;;;;;505502;236;1067;-45
2021/04/21 02:07:55;;;;;;;;;;;21.10;36.50;;;;;;505314;235;1078;-45
2021/04/21 02:09:56;;;;;;;;;;;21.00;36.70;;;;;;505796;235;1040;-45
2021/04/21 02:11:57;;;;;;;;;;;21.00;36.80;;;;;;505221;234;1259;-45
2021/04/21 02:13:59;;;;;;;;;;;21.00;36.70;;;;;;505734;235;1016;-45
2021/04/21 02:16:00;;;;;;;;;;;21.10;36.60;;;;;;505798;235;2134;-45
2021/04/21 02:18:01;;;;;;;;;;;21.00;36.60;;;;;;505360;235;1199;-45
2021/04/21 02:20:02;;;;;;;;;;;21.00;36.70;;;;;;505474;235;1253;-45
2021/04/21 02:22:04;;;;;;;;;;;20.90;36.80;;;;;;505393;235;1184;-45
2021/04/21 02:24:05;;;;;;;;;;;21.00;36.90;;;;;;505852;235;1043;-45
2021/04/21 02:26:06;;;;;;;;;;;20.90;36.90;;;;;;505308;235;1468;-45
2021/04/21 02:28:07;;;;;;;;;;;20.90;37.00;;;;;;505781;235;1206;-45
2021/04/21 02:30:09;;;;;;;;;;;20.80;37.00;;;;;;505883;235;1071;-45
2021/04/21 02:32:10;;;;;;;;;;;20.80;37.00;;;;;;505646;232;1290;-45
2021/04/21 02:34:12;;;;;;;;;;;20.90;36.90;;;;;;505656;235;1095;-45
2021/04/21 02:36:13;;;;;;;;;;;20.90;36.90;;;;;;505860;235;2121;-44
2021/04/21 02:38:14;;;;;;;;;;;20.90;36.90;;;;;;505609;235;1036;-45
2021/04/21 02:40:15;;;;;;;;;;;20.80;37.10;;;;;;505520;235;1060;-45
2021/04/21 02:42:17;;;;;;;;;;;20.80;37.10;;;;;;505448;235;1253;-44
2021/04/21 02:44:18;;;;;;;;;;;20.80;37.10;;;;;;505518;236;1204;-44
2021/04/21 02:46:19;;;;;;;;;;;20.80;37.10;;;;;;505844;235;1128;-45
2021/04/21 02:48:21;;;;;;;;;;;20.70;37.30;;;;;;505541;235;1183;-44
2021/04/21 02:50:22;;;;;;;;;;;20.40;37.60;;;;;;505543;235;1010;-44
2021/04/21 02:52:23;;;;;;;;;;;20.30;38.00;;;;;;505800;235;1048;-45
2021/04/21 02:54:24;;;;;;;;;;;20.20;38.30;;;;;;505352;236;960;-44
2021/04/21 02:56:26;;;;;;;;;;;20.10;38.50;;;;;;505755;235;2142;-44
2021/04/21 02:58:27;;;;;;;;;;;20.00;38.60;;;;;;505393;235;1108;-45
2021/04/21 03:00:28;;;;;;;;;;;19.90;38.80;;;;;;505899;235;1215;-45
2021/04/21 03:02:30;;;;;;;;;;;19.90;38.90;;;;;;505394;235;1256;-44
2021/04/21 03:04:31;;;;;;;;;;;19.80;39.00;;;;;;505882;235;1065;-44
2021/04/21 03:06:32;;;;;;;;;;;19.80;39.00;;;;;;505359;234;1301;-45
2021/04/21 03:08:33;;;;;;;;;;;19.70;39.10;;;;;;505778;235;1096;-44
2021/04/21 03:10:35;;;;;;;;;;;19.70;39.20;;;;;;505421;235;1064;-45
2021/04/21 03:12:36;;;;;;;;;;;19.70;39.30;;;;;;505490;235;1490;-45
2021/04/21 03:14:37;;;;;;;;;;;19.70;39.30;;;;;;505550;235;1242;-45
2021/04/21 03:16:39;;;;;;;;;;;19.60;39.40;;;;;;505554;236;2189;-45
2021/04/21 03:18:40;;;;;;;;;;;19.60;39.40;;;;;;505630;235;1151;-44
2021/04/21 03:20:41;;;;;;;;;;;19.50;39.40;;;;;;505881;235;1039;-44
2021/04/21 03:22:42;;;;;;;;;;;19.50;39.50;;;;;;505457;235;1241;-45
2021/04/21 03:24:44;;;;;;;;;;;19.60;39.40;;;;;;505564;235;1222;-44
2021/04/21 03:26:45;;;;;;;;;;;19.50;39.50;;;;;;505431;235;1493;-44
2021/04/21 03:28:46;;;;;;;;;;;19.40;39.50;;;;;;505483;234;1073;-45
2021/04/21 03:30:47;;;;;;;;;;;19.40;39.60;;;;;;505292;235;1029;-44
2021/04/21 03:32:49;;;;;;;;;;;19.40;39.70;;;;;;505824;235;1046;-44
2021/04/21 03:34:50;;;;;;;;;;;19.40;39.80;;;;;;505376;235;1106;-44
2021/04/21 03:36:51;;;;;;;;;;;19.40;39.80;;;;;;505832;235;2147;-44
2021/04/21 03:38:53;;;;;;;;;;;19.40;39.70;;;;;;505864;235;1101;-44
2021/04/21 03:40:54;;;;;;;;;;;19.30;39.70;;;;;;505361;235;1014;-44
2021/04/21 03:42:55;;;;;;;;;;;19.30;39.70;;;;;;505338;235;1081;-44
2021/04/21 03:44:56;;;;;;;;;;;19.30;39.80;;;;;;505297;235;1454;-44
2021/04/21 03:46:58;;;;;;;;;;;19.20;39.90;;;;;;505254;234;1054;-44
2021/04/21 03:48:59;;;;;;;;;;;19.20;39.90;;;;;;505466;234;1274;-44
2021/04/21 03:51:00;;;;;;;;;;;19.30;39.90;;;;;;505288;235;1072;-44
2021/04/21 03:53:02;;;;;;;;;;;19.30;39.70;;;;;;505571;235;1218;-45
2021/04/21 03:55:03;;;;;;;;;;;19.40;39.70;;;;;;505826;235;1078;-44
2021/04/21 03:57:04;;;;;;;;;;;19.40;39.70;;;;;;505221;235;2123;-45
2021/04/21 03:59:05;;;;;;;;;;;19.40;39.50;;;;;;505802;235;1127;-44
2021/04/21 04:01:07;;;;;;;;;;;19.40;39.60;;;;;;505322;235;1198;-44
2021/04/21 04:03:08;;;;;;;;;;;19.30;39.70;;;;;;505365;236;1199;-45
2021/04/21 04:05:09;;;;;;;;;;;19.30;39.80;;;;;;505333;234;1171;-44
2021/04/21 04:07:10;;;;;;;;;;;19.20;39.90;;;;;;505376;235;1690;-45
2021/04/21 04:09:12;;;;;;;;;;;19.20;40.00;;;;;;505810;235;1086;-44
2021/04/21 04:11:13;;;;;;;;;;;19.20;40.00;;;;;;505704;235;1248;-45
2021/04/21 04:13:14;;;;;;;;;;;19.20;40.00;;;;;;505470;234;1154;-44
2021/04/21 04:15:16;;;;;;;;;;;19.30;39.80;;;;;;505635;235;999;-45
2021/04/21 04:17:17;;;;;;;;;;;19.30;39.60;;;;;;505380;235;2154;-45
2021/04/21 04:19:18;;;;;;;;;;;19.40;39.60;;;;;;505298;235;1238;-45
2021/04/21 04:21:19;;;;;;;;;;;19.30;39.60;;;;;;505280;235;1263;-44
2021/04/21 04:23:21;;;;;;;;;;;19.40;39.50;;;;;;505318;235;1201;-44
2021/04/21 04:25:22;;;;;;;;;;;19.40;39.50;;;;;;505789;235;1037;-45
2021/04/21 04:27:23;;;;;;;;;;;19.40;39.60;;;;;;505635;235;1129;-45
2021/04/21 04:29:25;;;;;;;;;;;19.40;39.40;;;;;;505398;235;1150;-45
2021/04/21 04:31:26;;;;;;;;;;;19.40;39.30;;;;;;505330;236;1490;-44
2021/04/21 04:33:27;;;;;;;;;;;19.40;39.40;;;;;;505243;235;1123;-44
2021/04/21 04:35:28;;;;;;;;;;;19.40;39.30;;;;;;505306;235;1166;-44
2021/04/21 04:37:30;;;;;;;;;;;19.40;39.30;;;;;;505369;235;2118;-44
2021/04/21 04:39:31;;;;;;;;;;;19.50;39.20;;;;;;505164;236;1047;-45
2021/04/21 04:41:32;;;;;;;;;;;19.80;38.70;;;;;;505225;235;1149;-45
2021/04/21 04:43:34;;;;;;;;;;;20.10;37.90;;;;;;505643;235;1083;-45
2021/04/21 04:45:35;;;;;;;;;;;20.40;37.60;;;;;;505028;235;1948;-44
2021/04/21 04:47:36;;;;;;;;;;;20.50;37.10;;;;;;504398;235;1210;-44
2021/04/21 04:49:38;;;;;;;;;;;20.70;36.90;;;;;;504975;235;1254;-44
2021/04/21 04:51:39;;;;;;;;;;;20.70;36.80;;;;;;505190;235;1296;-45
2021/04/21 04:53:41;;;;;;;;;;;20.70;36.80;;;;;;505211;235;1089;-45
2021/04/21 04:55:42;;;;;;;;;;;20.80;36.80;;;;;;505492;235;1047;-44
2021/04/21 04:57:43;;;;;;;;;;;20.80;36.70;;;;;;505460;235;2139;-45
2021/04/21 04:59:48;;;;;;;;;;;20.90;36.60;;;;;;505095;234;1081;-45
2021/04/21 05:01:49;;;;;;;;;;;20.90;36.40;;;;;;504910;235;1206;-44
2021/04/21 05:03:50;;;;;;;;;;;21.10;36.20;;;;;;505255;235;1204;-45
2021/04/21 05:05:51;;;;;;;;;;;21.10;36.20;;;;;;505032;234;1201;-44
2021/04/21 05:07:53;;;;;;;;;;;21.00;36.30;;;;;;505044;235;1234;-45
2021/04/21 05:09:54;;;;;;;;;;;20.90;36.50;;;;;;504945;235;1066;-45
2021/04/21 05:11:55;;;;;;;;;;;20.70;36.80;;;;;;504921;235;1206;-44
2021/04/21 05:13:57;;;;;;;;;;;20.30;37.50;;;;;;505145;235;1032;-44
2021/04/21 05:15:58;;;;;;;;;;;20.00;38.10;;;;;;505266;235;1507;-44
2021/04/21 05:18:00;;;;;;;;;;;19.80;38.50;;;;;;505402;235;2180;-44
2021/04/21 05:20:01;;;;;;;;;;;19.70;38.70;;;;;;505071;235;1160;-44
2021/04/21 05:22:02;;;;;;;;;;;19.60;38.90;;;;;;505129;235;1090;-44
2021/04/21 05:24:03;;;;;;;;;;;19.50;39.20;;;;;;505300;235;1081;-44
2021/04/21 05:26:05;;;;;;;;;;;19.40;39.30;;;;;;505137;235;1228;-44
2021/04/21 05:28:06;;;;;;;;;;;19.40;39.50;;;;;;505001;235;1125;-44
2021/04/21 05:30:08;;;;;;;;;;;19.30;39.60;;;;;;504993;236;1071;-45
2021/04/21 05:32:09;;;;;;;;;;;19.20;39.90;;;;;;504880;235;1062;-44
2021/04/21 05:34:10;;;;;;;;;;;19.10;40.00;;;;;;505262;235;1168;-44
2021/04/21 05:36:11;;;;;;;;;;;19.10;40.10;;;;;;505077;235;1127;-44
2021/04/21 05:38:13;;;;;;;;;;;19.00;40.10;;;;;;505463;235;2193;-44
2021/04/21 05:40:14;;;;;;;;;;;19.00;40.20;;;;;;505022;235;1083;-44
2021/04/21 05:42:15;;;;;;;;;;;19.00;40.20;;;;;;505152;235;1081;-44
2021/04/21 05:44:16;;;;;;;;;;;18.90;40.30;;;;;;504827;235;1054;-44
2021/04/21 05:46:18;;;;;;;;;;;18.90;40.30;;;;;;504757;236;1111;-44
2021/04/21 05:48:20;;;;;;;;;;;19.00;40.30;;;;;;504729;235;1246;-44
2021/04/21 05:50:20;;;;;;;;;;;18.90;40.20;;;;;;504746;236;2209;-45
2021/04/21 05:52:22;;;;;;;;;;;18.90;40.30;;;;;;504816;236;1109;-44
2021/04/21 05:54:23;;;;;;;;;;;18.90;40.30;;;;;;504991;235;1150;-45
2021/04/21 05:56:24;;;;;;;;;;;18.90;40.30;;;;;;504838;234;1057;-44
2021/04/21 05:58:25;;;;;;;;;;;18.90;40.20;;;;;;504830;236;2182;-44
2021/04/21 06:00:27;;;;;;;;;;;19.00;40.10;;;;;;504856;235;1150;-44
2021/04/21 06:02:28;;;;;;;;;;;19.00;40.10;;;;;;504980;234;1079;-44
2021/04/21 06:04:29;;;;;;;;;;;19.00;40.00;;;;;;504841;235;1140;-44
2021/04/21 06:06:31;;;;;;;;;;;19.10;40.00;;;;;;504904;234;1180;-44
2021/04/21 06:08:32;;;;;;;;;;;19.10;39.90;;;;;;504883;236;1275;-44
2021/04/21 06:10:33;;;;;;;;;;;19.10;39.80;;;;;;504875;235;1134;-44
2021/04/21 06:12:36;;;;;;;;;;;19.10;39.70;;;;;;504722;235;1090;-44
2021/04/21 06:14:36;;;;;;;;;;;19.10;39.90;;;;;;504764;235;1677;-44
2021/04/21 06:16:37;;;;;;;;;;;19.00;39.90;;;;;;505011;235;1206;-45
2021/04/21 06:18:38;;;;;;;;;;;19.00;40.00;;;;;;504896;235;2177;-44
2021/04/21 06:20:40;;;;;;;;;;;19.00;40.10;;;;;;504692;235;1247;-44
2021/04/21 06:22:41;;;;;;;;;;;18.90;40.20;;;;;;504691;235;1258;-44
2021/04/21 06:24:42;;;;;;;;;;;18.90;40.20;;;;;;504666;235;1085;-44
2021/04/21 06:26:44;;;;;;;;;;;18.90;40.30;;;;;;504757;235;1337;-44
2021/04/21 06:28:45;;;;;;;;;;;18.80;40.40;;;;;;504693;235;1129;-44
2021/04/21 06:30:46;;;;;;;;;;;18.70;40.40;;;;;;504526;235;1301;-44
2021/04/21 06:32:48;;;;;;;;;;;18.80;40.40;;;;;;504662;236;1293;-44
2021/04/21 06:34:49;;;;;;;;;;;18.70;40.40;;;;;;504582;236;1145;-44
2021/04/21 06:36:52;;;;;;;;;;;18.70;40.50;;;;;;504446;235;2169;-44
2021/04/21 06:38:51;;;;;;;;;;;18.70;40.60;;;;;;504640;235;1980;-44
2021/04/21 06:40:53;;;;;;;;;;;18.70;40.70;;;;;;504605;235;1326;-44
2021/04/21 06:42:54;;;;;;;;;;;18.70;40.60;;;;;;504677;235;1502;-44
2021/04/21 06:44:55;;;;;;;;;;;18.60;40.60;;;;;;504678;235;1148;-45
2021/04/21 06:46:56;;;;;;;;;;;18.60;40.80;;;;;;504528;234;1370;-44
2021/04/21 06:48:58;;;;;;;;;;;18.60;40.80;;;;;;504765;234;1193;-44
2021/04/21 06:50:59;;;;;;;;;;;18.60;40.80;;;;;;504733;235;1320;-44
2021/04/21 06:53:01;;;;;;;;;;;18.60;40.80;;;;;;504683;235;1143;-44
2021/04/21 06:55:02;;;;;;;;;;;18.50;40.80;;;;;;504511;235;1088;-44
2021/04/21 06:57:03;;;;;;;;;;;18.50;40.80;;;;;;504541;235;2190;-44
2021/04/21 06:59:05;;;;;;;;;;;18.50;40.90;;;;;;504702;235;1100;-44
2021/04/21 07:01:06;;;;;;;;;;;18.50;41.00;;;;;;504533;235;1201;-44
2021/04/21 07:03:07;;;;;;;;;;;18.50;40.90;;;;;;504578;235;1125;-44
2021/04/21 07:05:09;;;;;;;;;;;18.50;40.90;;;;;;504513;235;1090;-44
2021/04/21 07:07:10;;;;;;;;;;;18.50;41.00;;;;;;504440;235;1318;-44
2021/04/21 07:09:11;;;;;;;;;;;18.40;41.00;;;;;;504577;236;1059;-44
2021/04/21 07:11:13;;;;;;;;;;;18.40;41.00;;;;;;504793;235;1340;-44
2021/04/21 07:13:14;;;;;;;;;;;18.40;41.00;;;;;;504560;236;1274;-44
2021/04/21 07:15:16;;;;;;;;;;;18.40;41.00;;;;;;504551;235;1169;-44
2021/04/21 07:17:17;;;;;;;;;;;18.40;41.00;;;;;;504304;235;2204;-44
2021/04/21 07:19:18;;;;;;;;;;;18.40;41.00;;;;;;504470;235;1106;-43
2021/04/21 07:21:19;;;;;;;;;;;18.40;41.10;;;;;;504343;236;1298;-44
2021/04/21 07:23:20;;;;;;;;;;;18.40;41.00;;;;;;504537;235;1223;-44
2021/04/21 07:25:22;;;;;;;;;;;18.40;41.00;;;;;;504603;235;1189;-44
2021/04/21 07:27:23;;;;;;;;;;;18.40;41.00;;;;;;504571;236;1188;-44
2021/04/21 07:29:24;;;;;;;;;;;18.40;40.90;;;;;;504395;235;1117;-44
2021/04/21 07:31:25;;;;;;;;;;;18.40;40.90;;;;;;504506;234;1253;-44
2021/04/21 07:33:27;;;;;;;;;;;18.40;40.90;;;;;;504866;235;1324;-44
2021/04/21 07:35:29;;;;;;;;;;;18.40;40.80;;;;;;504610;235;1214;-44
2021/04/21 07:37:29;;;;;;;;;;;18.50;40.80;;;;;;504603;236;2189;-44
2021/04/21 07:39:31;;;;;;;;;;;18.40;40.80;;;;;;504840;235;1080;-44
2021/04/21 07:41:32;;;;;;;;;;;18.50;40.70;;;;;;504739;235;1295;-44
2021/04/21 07:43:33;;;;;;;;;;;18.50;40.80;;;;;;504767;236;1086;-44
2021/04/21 07:45:35;;;;;;;;;;;18.50;40.80;;;;;;504547;235;1545;-44
2021/04/21 07:47:36;;;;;;;;;;;18.40;40.80;;;;;;504823;235;1207;-44
2021/04/21 07:49:37;;;;;;;;;;;18.50;40.70;;;;;;504906;235;1066;-44
2021/04/21 07:51:38;;;;;;;;;;;18.50;40.70;;;;;;504486;235;1272;-45
2021/04/21 07:53:40;;;;;;;;;;;18.50;40.70;;;;;;504587;234;1298;-44
2021/04/21 07:55:41;;;;;;;;;;;18.40;40.70;;;;;;504562;235;1304;-44
2021/04/21 07:57:44;;;;;;;;;;;18.40;40.70;;;;;;504589;235;2130;-45
2021/04/21 07:59:44;;;;;;;;;;;18.40;40.70;;;;;;504300;236;1382;-44
2021/04/21 08:01:45;;;;;;;;;;;18.50;40.70;;;;;;504501;235;1315;-45
2021/04/21 08:03:47;;;;;;;;;;;18.50;40.70;;;;;;504593;234;1390;-44
2021/04/21 08:05:48;;;;;;;;;;;18.50;40.60;;;;;;504479;235;1045;-44
2021/04/21 08:07:49;;;;;;;;;;;18.60;40.50;;;;;;504502;235;1210;-44
2021/04/21 08:09:50;;;;;;;;;;;18.60;40.50;;;;;;504458;235;1134;-44
2021/04/21 08:11:52;;;;;;;;;;;18.60;40.50;;;;;;504508;235;1095;-44
2021/04/21 08:13:53;;;;;;;;;;;18.50;40.50;;;;;;504607;235;1091;-44
2021/04/21 08:15:54;;;;;;;;;;;18.50;40.50;;;;;;504432;235;1292;-44
2021/04/21 08:17:56;;;;;;;;;;;18.50;40.50;;;;;;504431;235;2135;-44
2021/04/21 08:19:57;;;;;;;;;;;18.50;40.50;;;;;;504544;235;1178;-44
2021/04/21 08:21:58;;;;;;;;;;;18.60;40.50;;;;;;504265;235;1269;-44
2021/04/21 08:23:59;;;;;;;;;;;18.60;40.40;;;;;;504548;235;1129;-44
2021/04/21 08:26:01;;;;;;;;;;;18.60;40.40;;;;;;504587;235;1111;-44
2021/04/21 08:28:02;;;;;;;;;;;18.50;40.50;;;;;;504572;235;1128;-44
2021/04/21 08:30:04;;;;;;;;;;;18.50;40.50;;;;;;504589;235;1053;-45
2021/04/21 08:32:05;;;;;;;;;;;18.50;40.50;;;;;;504729;236;1225;-44
2021/04/21 08:34:06;;;;;;;;;;;18.50;40.50;;;;;;504625;235;1109;-44
2021/04/21 08:36:07;;;;;;;;;;;18.50;40.50;;;;;;504342;235;1142;-44
2021/04/21 08:38:09;;;;;;;;;;;18.50;40.50;;;;;;504558;235;2178;-44
2021/04/21 08:40:10;;;;;;;;;;;18.50;40.40;;;;;;504595;235;1138;-44
2021/04/21 08:42:12;;;;;;;;;;;18.50;40.50;;;;;;504628;236;1135;-44
2021/04/21 08:44:13;;;;;;;;;;;18.50;40.60;;;;;;504467;235;1246;-44
2021/04/21 08:46:14;;;;;;;;;;;18.50;40.60;;;;;;504372;235;1250;-44
2021/04/21 08:48:16;;;;;;;;;;;18.50;40.50;;;;;;504533;235;1209;-44
2021/04/21 08:50:17;;;;;;;;;;;18.50;40.40;;;;;;504128;235;1119;-44
2021/04/21 08:52:18;;;;;;;;;;;18.50;40.50;;;;;;504290;234;1172;-44
2021/04/21 08:54:20;;;;;;;;;;;18.50;40.50;;;;;;504232;235;1210;-44
2021/04/21 08:56:21;;;;;;;;;;;18.50;40.50;;;;;;504388;235;1097;-44
2021/04/21 08:58:22;;;;;;;;;;;18.50;40.50;;;;;;504491;234;2173;-44
2021/04/21 09:00:24;;;;;;;;;;;18.50;40.50;;;;;;504360;235;1317;-44
2021/04/21 09:02:25;;;;;;;;;;;18.50;40.40;;;;;;504557;235;1132;-44
2021/04/21 09:04:26;;;;;;;;;;;18.50;40.50;;;;;;504502;235;1158;-44
2021/04/21 09:06:28;;;;;;;;;;;18.50;40.50;;;;;;504313;235;1087;-44
2021/04/21 09:08:29;;;;;;;;;;;18.50;40.40;;;;;;504424;235;1160;-44
2021/04/21 09:10:30;;;;;;;;;;;18.50;40.40;;;;;;504273;235;1243;-44
2021/04/21 09:12:32;;;;;;;;;;;18.50;40.40;;;;;;504360;235;1116;-44
2021/04/21 09:14:33;;;;;;;;;;;18.50;40.40;;;;;;504307;235;1227;-44
2021/04/21 09:16:35;;;;;;;;;;;18.50;40.40;;;;;;504254;234;1174;-44
2021/04/21 09:18:36;;;;;;;;;;;18.50;40.40;;;;;;504396;235;2201;-44
2021/04/21 09:20:40;;;;;;;;;;;18.60;40.30;;;;;;504522;235;1289;-44
2021/04/21 09:22:38;;;;;;;;;;;18.60;40.20;;;;;;504392;235;1382;-44
2021/04/21 09:24:41;;;;;;;;;;;18.60;40.30;;;;;;504437;235;1209;-45
2021/04/21 09:26:41;;;;;;;;;;;18.60;40.30;;;;;;504327;235;1983;-44
2021/04/21 09:28:42;;;;;;;;;;;18.60;40.30;;;;;;504484;235;1069;-44
2021/04/21 09:30:45;;;;;;;;;;;18.60;40.30;;;;;;504636;235;1079;-44
2021/04/21 09:32:45;;;;;;;;;;;18.50;40.40;;;;;;504483;236;2295;-44
2021/04/21 09:34:46;;;;;;;;;;;18.60;40.20;;;;;;504386;234;1149;-44
2021/04/21 09:36:47;;;;;;;;;;;18.70;40.10;;;;;;504588;235;1480;-44
2021/04/21 09:38:49;;;;;;;;;;;19.00;39.60;;;;;;504943;235;2173;-44
2021/04/21 09:40:52;;;;;;;;;;;19.10;39.30;;;;;;504557;235;1657;-45
2021/04/21 09:42:51;;;;;;;;;;;19.30;39.00;;;;;;504486;235;2166;-44
2021/04/21 09:44:53;;;;;;;;;;;19.50;38.40;;;;;;504541;235;1091;-45
2021/04/21 09:46:54;;;;;;;;;;;19.60;38.20;;;;;;504634;235;1577;-45
2021/04/21 09:48:55;;;;;;;;;;;19.70;38.10;;;;;;504758;235;1091;-44
2021/04/21 09:50:56;;;;;;;;;;;19.50;38.30;;;;;;504733;235;1208;-45
2021/04/21 09:52:58;;;;;;;;;;;19.50;38.40;;;;;;505335;235;1116;-44
2021/04/21 09:54:59;;;;;;;;;;;19.40;38.50;;;;;;504625;235;1406;-44
2021/04/21 09:57:00;;;;;;;;;;;19.40;38.70;;;;;;504563;235;1220;-45
2021/04/21 09:59:02;;;;;;;;;;;19.40;38.70;;;;;;504395;235;2166;-44
2021/04/21 10:01:03;;;;;;;;;;;19.40;38.70;;;;;;504440;235;1131;-44
2021/04/21 10:03:04;;;;;;;;;;;19.30;38.70;;;;;;504507;235;1139;-45
2021/04/21 10:05:06;;;;;;;;;;;19.20;38.90;;;;;;504495;234;1223;-44
2021/04/21 10:07:08;;;;;;;;;;;19.20;39.00;;;;;;504479;236;1218;-45
2021/04/21 10:09:09;;;;;;;;;;;19.20;39.10;;;;;;504594;235;2035;-44
2021/04/21 10:11:10;;;;;;;;;;;19.20;39.20;;;;;;504348;235;1139;-44
2021/04/21 10:13:11;;;;;;;;;;;19.10;39.20;;;;;;504469;235;1136;-44
2021/04/21 10:15:13;;;;;;;;;;;19.00;39.30;;;;;;504278;235;1104;-44
2021/04/21 10:17:14;;;;;;;;;;;19.00;39.40;;;;;;504379;234;1302;-44
2021/04/21 10:19:15;;;;;;;;;;;18.90;39.60;;;;;;504469;236;2182;-45
2021/04/21 10:21:16;;;;;;;;;;;18.90;39.80;;;;;;504429;235;1272;-44
2021/04/21 10:23:18;;;;;;;;;;;18.80;39.80;;;;;;505178;235;1091;-44
2021/04/21 10:25:19;;;;;;;;;;;18.80;39.90;;;;;;504375;235;1176;-45
2021/04/21 10:27:20;;;;;;;;;;;18.70;40.10;;;;;;504430;235;1288;-45
2021/04/21 10:29:21;;;;;;;;;;;18.60;40.20;;;;;;504572;235;1132;-45
2021/04/21 10:31:23;;;;;;;;;;;18.60;40.30;;;;;;504809;234;1150;-44
2021/04/21 10:33:24;;;;;;;;;;;18.60;40.40;;;;;;504962;236;1061;-44
2021/04/21 10:35:25;;;;;;;;;;;18.50;40.50;;;;;;504548;235;1377;-44
2021/04/21 10:37:27;;;;;;;;;;;18.50;40.60;;;;;;504600;235;1133;-44
2021/04/21 10:39:28;;;;;;;;;;;18.40;40.60;;;;;;504291;236;2181;-45
2021/04/21 10:41:32;;;;;;;;;;;18.40;40.60;;;;;;504364;235;1190;-44
2021/04/21 10:43:32;;;;;;;;;;;18.40;40.60;;;;;;505178;235;2266;-44
2021/04/21 10:45:33;;;;;;;;;;;18.40;40.70;;;;;;504656;235;1067;-44
2021/04/21 10:47:34;;;;;;;;;;;18.40;40.80;;;;;;504651;235;1255;-44
2021/04/21 10:49:36;;;;;;;;;;;18.40;40.90;;;;;;504743;235;1214;-44
2021/04/21 10:51:38;;;;;;;;;;;18.30;40.80;;;;;;504787;235;1180;-44
2021/04/21 10:53:39;;;;;;;;;;;18.30;40.80;;;;;;504513;235;2036;-44
2021/04/21 10:55:40;;;;;;;;;;;18.30;40.70;;;;;;504542;235;1129;-44
2021/04/21 10:57:42;;;;;;;;;;;18.40;40.80;;;;;;504519;235;1205;-44
2021/04/21 10:59:43;;;;;;;;;;;18.30;40.80;;;;;;504476;235;2189;-44
2021/04/21 11:01:44;;;;;;;;;;;18.30;40.80;;;;;;504674;235;1382;-44
2021/04/21 11:03:45;;;;;;;;;;;18.30;40.80;;;;;;504723;235;1181;-44
2021/04/21 11:05:46;;;;;;;;;;;18.30;40.90;;;;;;504664;235;1259;-44
2021/04/21 11:07:48;;;;;;;;;;;18.30;40.90;;;;;;504525;235;1137;-44
2021/04/21 11:09:49;;;;;;;;;;;18.30;41.00;;;;;;504611;235;1281;-44
2021/04/21 11:11:51;;;;;;;;;;;18.30;40.90;;;;;;504733;235;1174;-44
2021/04/21 11:13:53;;;;;;;;;;;18.30;40.70;;;;;;504773;235;1206;-44
2021/04/21 11:15:54;;;;;;;;;;;18.30;40.70;;;;;;504496;236;2173;-45
2021/04/21 11:17:55;;;;;;;;;;;18.30;40.70;;;;;;504532;235;1702;-44
2021/04/21 11:19:56;;;;;;;;;;;18.30;40.60;;;;;;504491;235;2142;-44
2021/04/21 11:21:57;;;;;;;;;;;18.30;40.70;;;;;;504375;235;1109;-45
2021/04/21 11:23:59;;;;;;;;;;;18.30;40.80;;;;;;504505;235;1129;-45
2021/04/21 11:26:00;;;;;;;;;;;18.30;40.80;;;;;;504639;234;1452;-44
2021/04/21 11:28:01;;;;;;;;;;;18.30;40.80;;;;;;504585;235;1297;-44
2021/04/21 11:30:03;;;;;;;;;;;18.30;40.80;;;;;;504553;236;1165;-44
2021/04/21 11:32:04;;;;;;;;;;;18.40;40.80;;;;;;504656;235;1200;-44
2021/04/21 11:34:05;;;;;;;;;;;18.30;40.70;;;;;;504919;235;862;-44
2021/04/21 11:36:06;;;;;;;;;;;18.30;40.70;;;;;;504791;235;1053;-44
2021/04/21 11:38:08;;;;;;;;;;;18.30;40.70;;;;;;504570;235;1094;-44
2021/04/21 11:40:10;;;;;;;;;;;18.40;40.70;;;;;;504815;235;2126;-44
2021/04/21 11:42:10;;;;;;;;;;;18.40;40.70;;;;;;504893;235;1882;-44
2021/04/21 11:44:12;;;;;;;;;;;18.40;40.70;;;;;;504522;235;1123;-44
2021/04/21 11:46:13;;;;;;;;;;;18.40;40.60;;;;;;504566;235;1302;-44
2021/04/21 11:48:14;;;;;;;;;;;18.30;40.70;;;;;;504791;236;1165;-44
2021/04/21 11:50:15;;;;;;;;;;;18.30;40.80;;;;;;504932;236;977;-44
2021/04/21 11:52:17;;;;;;;;;;;18.30;40.80;;;;;;505069;235;1143;-44
2021/04/21 11:54:18;;;;;;;;;;;18.30;40.70;;;;;;504523;235;1092;-44
2021/04/21 11:56:19;;;;;;;;;;;18.30;40.80;;;;;;504770;235;1172;-45